Time;durP1;ratioP1;P1;durP2;ratioP2;P2;SDS_P1;SDS_P2;PMS_P1;PMS_P2;Temp;Humidity;BMP_temperature;BMP_pressure;BME280_temperature;BME280_humidity;BME280_pressure;Samples;Min_cycle;Max_cycle;Signal;HPM_P1;HPM_P2
2021/09/02 00:01:46;;;;;;;;;;;;;;;24.54;62.94;100970.06;5034318;28;1428;-48
2021/09/02 00:04:12;;;;;;;;;;;;;;;24.53;63.06;100962.97;5034609;28;1007;-48
2021/09/02 00:06:38;;;;;;;;;;;;;;;24.49;62.72;100945.38;5034433;28;1975;-48
2021/09/02 00:09:05;;;;;;;;;;;;;;;24.51;62.40;100945.22;5034013;28;1159;-48
2021/09/02 00:11:33;;;;;;;;;;;;;;;24.50;62.54;100920.03;5034123;28;1068;-48
2021/09/02 00:13:59;;;;;;;;;;;;;;;24.49;62.25;100931.84;5033716;28;1144;-48
2021/09/02 00:16:26;;;;;;;;;;;;;;;24.50;62.74;100938.09;5033655;28;1033;-48
2021/09/02 00:18:52;;;;;;;;;;;;;;;24.49;62.65;100942.66;5034321;28;1043;-48
2021/09/02 00:21:19;;;;;;;;;;;;;;;24.51;62.80;100951.50;5034176;28;1171;-48
2021/09/02 00:23:46;;;;;;;;;;;;;;;24.52;63.00;100953.16;5033966;28;1183;-48
2021/09/02 00:26:13;;;;;;;;;;;;;;;24.49;62.16;100948.06;5033888;28;1906;-48
2021/09/02 00:28:41;;;;;;;;;;;;;;;24.52;62.99;100958.56;5033856;28;1522;-48
2021/09/02 00:31:07;;;;;;;;;;;;;;;24.49;63.15;100956.19;5034048;28;998;-48
2021/09/02 00:33:34;;;;;;;;;;;;;;;24.52;62.98;100963.97;5034092;28;1077;-48
2021/09/02 00:36:00;;;;;;;;;;;;;;;24.49;62.59;100936.38;5034061;28;1003;-48
2021/09/02 00:38:27;;;;;;;;;;;;;;;24.53;62.66;100954.00;5034045;28;1081;-48
2021/09/02 00:40:53;;;;;;;;;;;;;;;24.52;62.37;100947.75;5033694;28;1104;-48
2021/09/02 00:43:20;;;;;;;;;;;;;;;24.46;62.62;100939.44;5033871;28;1015;-48
2021/09/02 00:45:47;;;;;;;;;;;;;;;24.47;62.54;100939.28;5033867;28;1906;-48
2021/09/02 00:48:15;;;;;;;;;;;;;;;24.46;62.77;100940.28;5033600;28;1099;-48
2021/09/02 00:50:41;;;;;;;;;;;;;;;24.50;63.00;100966.00;5033557;28;1136;-48
2021/09/02 00:53:08;;;;;;;;;;;;;;;24.49;62.79;100958.88;5033821;28;1106;-48
2021/09/02 00:55:34;;;;;;;;;;;;;;;24.46;62.51;100953.81;5033725;28;998;-48
2021/09/02 00:58:01;;;;;;;;;;;;;;;24.52;62.79;100973.94;5033473;28;1096;-48
2021/09/02 01:00:28;;;;;;;;;;;;;;;24.46;62.77;100956.50;5033742;28;1027;-48
2021/09/02 01:02:56;;;;;;;;;;;;;;;24.47;62.83;100958.22;5033146;28;1487;-48
2021/09/02 01:05:22;;;;;;;;;;;;;;;24.47;62.45;100965.44;5033286;28;1913;-48
2021/09/02 01:07:49;;;;;;;;;;;;;;;24.50;63.29;100949.78;5033585;28;1058;-48
2021/09/02 01:10:16;;;;;;;;;;;;;;;24.48;63.34;100959.03;5033367;28;1084;-48
2021/09/02 01:12:43;;;;;;;;;;;;;;;24.46;62.82;100964.63;5033641;28;1006;-47
2021/09/02 01:15:11;;;;;;;;;;;;;;;24.46;62.48;100953.81;5033623;28;1063;-48
2021/09/02 01:17:38;;;;;;;;;;;;;;;24.47;62.47;100960.91;5033614;28;1004;-48
2021/09/02 01:20:07;;;;;;;;;;;;;;;24.51;63.27;100966.84;5033496;28;1015;-48
2021/09/02 01:22:34;;;;;;;;;;;;;;;24.45;62.69;100973.72;5033530;28;1007;-48
2021/09/02 01:25:02;;;;;;;;;;;;;;;24.46;63.14;100958.38;5033474;28;1976;-47
2021/09/02 01:27:29;;;;;;;;;;;;;;;24.44;62.70;100960.41;5037828;28;1092;-47
2021/09/02 01:29:56;;;;;;;;;;;;;;;24.48;63.22;100972.56;5037228;28;1136;-47
2021/09/02 01:32:23;;;;;;;;;;;;;;;24.44;62.90;100961.22;5037091;28;1075;-48
2021/09/02 01:34:53;;;;;;;;;;;;;;;24.45;62.70;100962.91;5037097;28;1144;-48
2021/09/02 01:37:19;;;;;;;;;;;;;;;24.49;63.15;100974.25;5037052;28;1108;-48
2021/09/02 01:39:47;;;;;;;;;;;;;;;24.45;63.17;100960.19;5036995;28;1084;-48
2021/09/02 01:42:15;;;;;;;;;;;;;;;24.48;63.28;100967.16;5037261;28;1070;-48
2021/09/02 01:44:42;;;;;;;;;;;;;;;24.44;62.55;100953.13;5037134;28;1078;-48
2021/09/02 01:47:21;;;;;;;;;;;;;;;24.45;63.13;100953.97;5037091;28;1972;-47
2021/09/02 01:49:47;;;;;;;;;;;;;;;24.40;63.08;100952.59;5037147;28;1109;-48
2021/09/02 01:52:14;;;;;;;;;;;;;;;24.40;62.44;100963.41;5037110;28;1064;-47
2021/09/02 01:54:41;;;;;;;;;;;;;;;24.43;62.80;100962.22;5036739;28;1135;-48
2021/09/02 01:57:07;;;;;;;;;;;;;;;24.41;62.79;100958.84;5036622;28;1088;-48
2021/09/02 01:59:35;;;;;;;;;;;;;;;24.44;63.15;100961.22;5036593;28;1282;-48
2021/09/02 02:02:02;;;;;;;;;;;;;;;24.41;62.75;100951.59;5124952;23;3616;-47
2021/09/02 02:04:28;;;;;;;;;;;;;;;24.45;63.23;100968.31;4997467;28;1086;-48
2021/09/02 02:06:55;;;;;;;;;;;;;;;24.44;62.82;100944.19;4997449;28;2009;-48
2021/09/02 02:09:21;;;;;;;;;;;;;;;24.42;63.09;100960.56;4997392;28;1081;-47
2021/09/02 02:11:48;;;;;;;;;;;;;;;24.45;63.16;100940.44;4997393;28;1026;-47
2021/09/02 02:14:14;;;;;;;;;;;;;;;24.45;62.64;100957.50;4997278;28;1067;-48
2021/09/02 02:16:42;;;;;;;;;;;;;;;24.41;63.25;100939.94;4997133;28;2058;-48
2021/09/02 02:19:08;;;;;;;;;;;;;;;24.44;62.97;100952.28;4997255;28;1066;-48
2021/09/02 02:21:35;;;;;;;;;;;;;;;24.44;63.26;100955.81;4997163;28;1075;-48
2021/09/02 02:24:01;;;;;;;;;;;;;;;24.45;63.29;100957.50;4997002;28;1945;-48
2021/09/02 02:26:28;;;;;;;;;;;;;;;24.40;62.17;100946.38;4996692;28;1906;-48
2021/09/02 02:28:54;;;;;;;;;;;;;;;24.43;62.79;100948.72;4997109;28;959;-48
2021/09/02 02:31:21;;;;;;;;;;;;;;;24.38;63.09;100933.00;4997026;28;1003;-47
2021/09/02 02:33:48;;;;;;;;;;;;;;;24.40;63.34;100939.09;4997728;28;1019;-47
2021/09/02 02:36:15;;;;;;;;;;;;;;;24.38;63.04;100942.97;4996608;28;1064;-48
2021/09/02 02:38:41;;;;;;;;;;;;;;;24.39;62.71;100941.94;4995697;28;967;-48
2021/09/02 02:41:08;;;;;;;;;;;;;;;24.38;63.07;100948.38;4996858;28;1082;-48
2021/09/02 02:43:34;;;;;;;;;;;;;;;24.37;63.03;100950.25;4996752;28;996;-48
2021/09/02 02:46:01;;;;;;;;;;;;;;;24.42;62.91;100952.44;4996421;28;1911;-48
2021/09/02 02:48:27;;;;;;;;;;;;;;;24.41;62.85;100958.84;4996728;28;1003;-48
2021/09/02 02:50:55;;;;;;;;;;;;;;;24.39;62.71;100958.16;4996724;28;1086;-48
2021/09/02 02:53:21;;;;;;;;;;;;;;;24.44;63.27;100958.53;4996353;28;1135;-48
2021/09/02 02:55:48;;;;;;;;;;;;;;;24.37;62.40;100955.66;4996523;28;1000;-48
2021/09/02 02:58:14;;;;;;;;;;;;;;;24.36;63.13;100955.81;4996565;28;1054;-48
2021/09/02 03:00:41;;;;;;;;;;;;;;;24.42;63.32;100965.97;4996510;28;1044;-48
2021/09/02 03:03:07;;;;;;;;;;;;;;;24.37;62.80;100969.16;4996054;28;1872;-47
2021/09/02 03:05:34;;;;;;;;;;;;;;;24.40;63.30;100971.53;4996073;28;1903;-47
2021/09/02 03:08:03;;;;;;;;;;;;;;;24.36;62.39;100953.13;4996468;28;1003;-48
2021/09/02 03:10:29;;;;;;;;;;;;;;;24.37;62.71;100971.88;4996124;28;1088;-48
2021/09/02 03:12:56;;;;;;;;;;;;;;;24.38;62.56;100959.19;4996033;28;1598;-48
2021/09/02 03:15:23;;;;;;;;;;;;;;;24.39;62.74;100961.75;4996316;28;1081;-48
2021/09/02 03:17:49;;;;;;;;;;;;;;;24.35;63.11;100967.63;4996184;28;1090;-48
2021/09/02 03:20:16;;;;;;;;;;;;;;;24.39;63.18;100971.69;4996200;28;1058;-47
2021/09/02 03:22:43;;;;;;;;;;;;;;;24.38;63.11;100967.31;4996169;28;1073;-47
2021/09/02 03:25:11;;;;;;;;;;;;;;;24.38;63.13;100973.56;4995794;28;1108;-48
2021/09/02 03:27:38;;;;;;;;;;;;;;;24.34;62.38;100955.97;4995984;28;1973;-47
2021/09/02 03:30:06;;;;;;;;;;;;;;;24.37;63.28;100962.91;4995801;28;1155;-48
2021/09/02 03:32:32;;;;;;;;;;;;;;;24.34;62.75;100955.13;4995643;28;1127;-48
2021/09/02 03:34:59;;;;;;;;;;;;;;;24.37;63.32;100962.91;4995863;28;1093;-47
2021/09/02 03:37:25;;;;;;;;;;;;;;;24.39;63.11;100966.28;4995550;28;1167;-47
2021/09/02 03:39:52;;;;;;;;;;;;;;;24.35;63.20;100967.63;4995478;28;1131;-47
2021/09/02 03:42:20;;;;;;;;;;;;;;;24.37;63.29;100966.47;4995710;28;1078;-48
2021/09/02 03:44:46;;;;;;;;;;;;;;;24.34;63.00;100966.78;4995437;28;1104;-48
2021/09/02 03:47:12;;;;;;;;;;;;;;;24.37;63.30;100968.31;4995329;28;1926;-48
2021/09/02 03:49:39;;;;;;;;;;;;;;;24.38;62.94;100973.56;4995313;28;1132;-48
2021/09/02 03:52:06;;;;;;;;;;;;;;;24.38;63.07;100980.81;4995629;28;1078;-48
2021/09/02 03:54:32;;;;;;;;;;;;;;;24.32;63.09;100970.69;4995504;28;1050;-48
2021/09/02 03:56:59;;;;;;;;;;;;;;;24.35;62.87;100981.13;4995535;28;1047;-47
2021/09/02 03:59:27;;;;;;;;;;;;;;;24.36;63.21;100985.56;4995216;28;1107;-48
2021/09/02 04:01:53;;;;;;;;;;;;;;;24.34;62.92;100987.56;4994865;28;1410;-48
2021/09/02 04:04:20;;;;;;;;;;;;;;;24.34;62.45;100985.72;4995328;28;1034;-47
2021/09/02 04:06:46;;;;;;;;;;;;;;;24.32;62.82;100989.59;4994911;28;1903;-48
2021/09/02 04:09:13;;;;;;;;;;;;;;;24.35;63.31;101000.94;4994857;28;1080;-48
2021/09/02 04:11:39;;;;;;;;;;;;;;;24.36;63.23;100991.78;4995164;28;1073;-48
2021/09/02 04:14:06;;;;;;;;;;;;;;;24.36;63.14;100996.38;4995124;28;1085;-48
2021/09/02 04:16:34;;;;;;;;;;;;;;;24.36;63.28;100997.19;4994791;28;1171;-47
2021/09/02 04:19:00;;;;;;;;;;;;;;;24.36;63.24;101007.16;4994664;28;1155;-48
2021/09/02 04:21:26;;;;;;;;;;;;;;;24.37;63.02;101007.00;4994762;28;1139;-48
2021/09/02 04:23:53;;;;;;;;;;;;;;;24.34;62.98;101003.78;4994989;28;999;-48
2021/09/02 04:26:20;;;;;;;;;;;;;;;24.35;62.67;100989.25;4994833;28;1906;-47
2021/09/02 04:28:46;;;;;;;;;;;;;;;24.39;63.10;101010.41;4994524;28;1103;-48
2021/09/02 04:31:13;;;;;;;;;;;;;;;24.37;63.17;101009.72;4994829;28;995;-48
2021/09/02 04:33:41;;;;;;;;;;;;;;;24.37;63.03;101014.25;4994787;28;1043;-47
2021/09/02 04:36:07;;;;;;;;;;;;;;;24.31;62.81;101006.81;4994446;28;1033;-48
2021/09/02 04:38:34;;;;;;;;;;;;;;;24.34;62.50;101017.31;4994705;28;1116;-47
2021/09/02 04:41:00;;;;;;;;;;;;;;;24.35;62.47;101005.47;4994399;28;1068;-48
2021/09/02 04:43:26;;;;;;;;;;;;;;;24.40;62.86;101016.63;4994673;28;1016;-48
2021/09/02 04:45:53;;;;;;;;;;;;;;;24.37;62.74;101015.13;4994555;28;1906;-48
2021/09/02 04:48:21;;;;;;;;;;;;;;;24.41;63.01;101021.03;4994589;28;1073;-47
2021/09/02 04:50:49;;;;;;;;;;;;;;;24.36;62.64;101017.97;4994567;28;1078;-47
2021/09/02 04:53:16;;;;;;;;;;;;;;;24.37;62.94;101030.47;4994469;28;1011;-48
2021/09/02 04:55:42;;;;;;;;;;;;;;;24.38;62.82;101016.78;4994501;28;1046;-48
2021/09/02 04:58:10;;;;;;;;;;;;;;;24.37;62.22;101015.13;4994164;28;1135;-47
2021/09/02 05:03:17;;;;;;;;;;;;;;;24.38;62.57;101024.06;4984527;28;2291;-48
2021/09/02 05:05:44;;;;;;;;;;;;;;;24.40;62.62;101024.75;4994305;28;991;-47
2021/09/02 05:10:52;;;;;;;;;;;;;;;24.45;62.03;101027.78;4993640;28;2597;-48
2021/09/02 05:13:19;;;;;;;;;;;;;;;24.45;62.31;101045.88;4994326;28;999;-48
2021/09/02 05:15:45;;;;;;;;;;;;;;;24.47;62.20;101036.59;4994339;28;1078;-48
2021/09/02 05:18:12;;;;;;;;;;;;;;;24.46;62.21;101029.50;4993913;28;1166;-48
2021/09/02 05:20:38;;;;;;;;;;;;;;;24.49;62.27;101023.78;4994274;28;1039;-47
2021/09/02 05:23:05;;;;;;;;;;;;;;;24.49;62.21;101022.91;4993970;28;1155;-48
2021/09/02 05:25:33;;;;;;;;;;;;;;;24.50;62.74;101020.06;4994214;28;1078;-48
2021/09/02 05:27:59;;;;;;;;;;;;;;;24.51;62.74;101019.06;4993843;28;1910;-47
2021/09/02 05:30:26;;;;;;;;;;;;;;;24.55;62.33;101033.94;4993789;28;928;-48
2021/09/02 05:32:52;;;;;;;;;;;;;;;24.52;62.47;101026.16;4994139;28;1095;-47
2021/09/02 05:35:19;;;;;;;;;;;;;;;24.54;62.56;101012.47;4993836;28;1163;-47
2021/09/02 05:37:45;;;;;;;;;;;;;;;24.56;62.34;101010.44;4993797;28;1076;-48
2021/09/02 05:40:12;;;;;;;;;;;;;;;24.60;62.01;101022.63;4994075;28;996;-48
2021/09/02 05:42:40;;;;;;;;;;;;;;;24.64;62.06;101031.25;4994024;28;1055;-48
2021/09/02 05:45:08;;;;;;;;;;;;;;;24.66;62.00;101046.28;4994081;28;1070;-48
2021/09/02 05:47:35;;;;;;;;;;;;;;;24.68;62.27;101029.91;4993693;28;1989;-48
2021/09/02 05:50:01;;;;;;;;;;;;;;;24.67;61.38;101031.78;4993730;28;1115;-47
2021/09/02 05:52:28;;;;;;;;;;;;;;;24.69;61.47;101026.19;4994017;28;1089;-47
2021/09/02 05:54:55;;;;;;;;;;;;;;;24.70;62.15;101009.78;4993898;28;1003;-47
2021/09/02 05:57:22;;;;;;;;;;;;;;;24.77;61.31;101026.19;4993934;28;1066;-48
2021/09/02 05:59:50;;;;;;;;;;;;;;;24.75;62.00;101023.66;4993622;28;1084;-48
2021/09/02 06:02:16;;;;;;;;;;;;;;;24.76;61.28;101025.34;4993509;28;1423;-48
2021/09/02 06:04:43;;;;;;;;;;;;;;;24.72;61.29;101015.03;4993839;28;1069;-47
2021/09/02 06:07:09;;;;;;;;;;;;;;;24.73;62.02;101004.06;4993447;28;1910;-47
2021/09/02 06:09:36;;;;;;;;;;;;;;;24.77;61.57;101037.00;4993758;28;999;-48
2021/09/02 06:12:02;;;;;;;;;;;;;;;24.83;61.20;101025.53;4993837;28;1085;-47
2021/09/02 06:14:29;;;;;;;;;;;;;;;24.80;61.15;101033.97;4996869;28;1077;-47
2021/09/02 06:16:57;;;;;;;;;;;;;;;24.80;61.05;101028.56;4997281;28;1070;-48
2021/09/02 06:19:23;;;;;;;;;;;;;;;24.84;61.95;101027.22;4997287;28;1012;-47
2021/09/02 06:21:50;;;;;;;;;;;;;;;24.80;61.04;101034.81;4997228;28;1082;-48
2021/09/02 06:24:16;;;;;;;;;;;;;;;24.80;60.98;101032.09;4996886;28;1108;-47
2021/09/02 06:26:42;;;;;;;;;;;;;;;24.85;61.12;101050.56;4996792;28;1902;-47
2021/09/02 06:29:09;;;;;;;;;;;;;;;24.86;61.44;101057.66;4996750;28;1174;-48
2021/09/02 06:31:35;;;;;;;;;;;;;;;24.86;60.85;101052.25;4996696;28;1174;-47
2021/09/02 06:34:03;;;;;;;;;;;;;;;24.87;61.07;101036.84;4996689;28;1139;-47
2021/09/02 06:36:30;;;;;;;;;;;;;;;24.85;60.92;101033.47;4996677;28;1088;-47
2021/09/02 06:38:56;;;;;;;;;;;;;;;24.83;61.13;101036.34;4996629;28;1064;-47
2021/09/02 06:41:23;;;;;;;;;;;;;;;24.87;61.04;101044.97;4996813;28;1074;-48
2021/09/02 06:43:49;;;;;;;;;;;;;;;24.87;61.48;101037.72;4996539;28;1262;-47
2021/09/02 06:46:16;;;;;;;;;;;;;;;24.83;61.42;101025.53;4996787;28;1078;-48
2021/09/02 06:48:42;;;;;;;;;;;;;;;24.84;61.39;101037.19;4996346;28;1969;-48
2021/09/02 06:51:10;;;;;;;;;;;;;;;24.87;61.91;101043.13;4996386;28;1100;-48
2021/09/02 06:53:36;;;;;;;;;;;;;;;24.85;60.99;101050.56;4996604;28;1081;-47
2021/09/02 06:56:03;;;;;;;;;;;;;;;24.84;61.24;101046.16;4996287;28;1172;-47
2021/09/02 06:58:29;;;;;;;;;;;;;;;24.85;61.61;101052.41;4996274;28;1135;-47
2021/09/02 07:00:56;;;;;;;;;;;;;;;24.87;61.50;101058.47;4996635;28;1089;-47
2021/09/02 07:03:22;;;;;;;;;;;;;;;24.84;61.95;101045.31;4995941;28;1348;-47
2021/09/02 07:05:49;;;;;;;;;;;;;;;24.84;61.32;101048.84;4996340;28;1085;-47
2021/09/02 07:08:17;;;;;;;;;;;;;;;24.83;61.20;101052.59;4996314;28;1902;-47
2021/09/02 07:10:43;;;;;;;;;;;;;;;24.81;61.18;101043.78;4996345;28;987;-47
2021/09/02 07:13:09;;;;;;;;;;;;;;;24.81;61.17;101047.34;4996380;28;1930;-47
2021/09/02 07:15:36;;;;;;;;;;;;;;;24.84;61.37;101051.56;4995919;28;1076;-47
2021/09/02 07:18:02;;;;;;;;;;;;;;;24.85;61.63;101055.09;4996266;28;1077;-47
2021/09/02 07:20:29;;;;;;;;;;;;;;;24.86;61.51;101054.94;4996145;28;1078;-47
2021/09/02 07:22:56;;;;;;;;;;;;;;;24.84;61.92;101058.84;4995796;28;1096;-47
2021/09/02 07:25:24;;;;;;;;;;;;;;;24.87;61.51;101062.06;4995691;28;988;-47
2021/09/02 07:27:51;;;;;;;;;;;;;;;24.87;61.78;101064.75;4995961;28;1910;-47
2021/09/02 07:30:17;;;;;;;;;;;;;;;24.85;61.56;101066.78;4995619;28;1287;-47
2021/09/02 07:32:44;;;;;;;;;;;;;;;24.85;61.41;101061.38;4995620;28;1068;-47
2021/09/02 07:35:11;;;;;;;;;;;;;;;24.89;61.67;101076.25;4995866;28;1109;-48
2021/09/02 07:37:37;;;;;;;;;;;;;;;24.83;61.67;101074.22;4995874;28;1002;-47
2021/09/02 07:40:04;;;;;;;;;;;;;;;24.83;61.44;101066.13;4995961;28;1095;-47
2021/09/02 07:42:32;;;;;;;;;;;;;;;24.86;61.30;101075.75;4995676;28;1063;-47
2021/09/02 07:45:00;;;;;;;;;;;;;;;24.86;61.56;101073.88;4995436;28;1063;-47
2021/09/02 07:47:27;;;;;;;;;;;;;;;24.85;61.51;101074.91;4995251;28;1906;-47
2021/09/02 07:49:53;;;;;;;;;;;;;;;24.85;61.63;101068.63;4995593;28;1063;-47
2021/09/02 07:52:20;;;;;;;;;;;;;;;24.86;61.36;101068.47;4995275;28;1095;-47
2021/09/02 07:54:46;;;;;;;;;;;;;;;24.85;61.31;101061.38;4995645;28;1046;-47
2021/09/02 07:57:13;;;;;;;;;;;;;;;24.86;61.52;101054.94;4995468;28;1077;-47
2021/09/02 07:59:41;;;;;;;;;;;;;;;24.87;61.32;101067.47;4995435;28;1078;-47
2021/09/02 08:02:07;;;;;;;;;;;;;;;24.88;61.58;101068.31;4994813;28;1314;-47
2021/09/02 08:04:34;;;;;;;;;;;;;;;24.89;62.17;101068.16;4995284;28;1079;-47
2021/09/02 08:07:00;;;;;;;;;;;;;;;24.84;61.59;101059.66;4995165;28;1980;-47
2021/09/02 08:09:27;;;;;;;;;;;;;;;24.83;61.96;101062.53;4994859;28;1100;-47
2021/09/02 08:11:54;;;;;;;;;;;;;;;24.85;61.32;101069.50;4994887;28;960;-47
2021/09/02 08:14:21;;;;;;;;;;;;;;;24.85;61.39;101061.38;4995151;28;1055;-47
2021/09/02 08:16:48;;;;;;;;;;;;;;;24.86;61.77;101062.22;4995125;28;1070;-47
2021/09/02 08:19:15;;;;;;;;;;;;;;;24.85;62.11;101061.38;4994977;28;1015;-47
2021/09/02 08:21:43;;;;;;;;;;;;;;;24.87;62.05;101059.34;4994727;28;1195;-47
2021/09/02 08:24:10;;;;;;;;;;;;;;;24.86;61.29;101057.66;4994955;28;1008;-47
2021/09/02 08:26:36;;;;;;;;;;;;;;;24.84;61.42;101056.97;4994927;28;1027;-47
2021/09/02 08:29:03;;;;;;;;;;;;;;;24.90;61.28;101068.97;4994503;28;1907;-47
2021/09/02 08:31:30;;;;;;;;;;;;;;;24.88;61.68;101066.44;4994824;28;1019;-47
2021/09/02 08:33:58;;;;;;;;;;;;;;;24.91;61.74;101063.41;4994513;28;1072;-48
2021/09/02 08:36:25;;;;;;;;;;;;;;;24.87;61.50;101032.31;4994107;28;995;-47
2021/09/02 08:38:51;;;;;;;;;;;;;;;24.91;61.48;101052.59;4994738;28;1054;-47
2021/09/02 08:41:18;;;;;;;;;;;;;;;24.90;62.13;101029.25;4994309;28;1147;-48
2021/09/02 08:43:46;;;;;;;;;;;;;;;24.88;61.18;101033.13;4994701;28;1102;-47
2021/09/02 08:46:13;;;;;;;;;;;;;;;24.86;61.75;101032.47;4994325;28;1186;-48
2021/09/02 08:48:40;;;;;;;;;;;;;;;24.90;61.53;101033.81;4994546;28;1923;-47
2021/09/02 08:51:08;;;;;;;;;;;;;;;24.93;61.61;101057.81;4994295;28;1115;-47
2021/09/02 08:53:35;;;;;;;;;;;;;;;24.85;61.25;101028.06;4994476;28;1074;-47
2021/09/02 08:56:01;;;;;;;;;;;;;;;24.90;62.38;101056.28;4994491;28;1031;-47
2021/09/02 08:58:30;;;;;;;;;;;;;;;24.91;61.98;101039.06;4994196;28;1301;-47
2021/09/02 09:00:56;;;;;;;;;;;;;;;24.89;62.33;101035.69;4994527;28;1070;-48
2021/09/02 09:03:24;;;;;;;;;;;;;;;24.88;61.79;101027.72;4993841;28;1418;-47
2021/09/02 09:05:53;;;;;;;;;;;;;;;24.95;61.40;101031.47;4994025;28;1127;-47
2021/09/02 09:08:30;;;;;;;;;;;;;;;24.89;61.67;101034.81;4994332;28;1906;-47
2021/09/02 09:10:57;;;;;;;;;;;;;;;24.89;61.41;101027.56;4994360;28;1071;-48
2021/09/02 09:13:30;;;;;;;;;;;;;;;24.90;62.26;101047.34;4994074;28;1143;-48
2021/09/02 09:15:57;;;;;;;;;;;;;;;24.91;61.35;101044.47;4994283;28;1060;-47
2021/09/02 09:18:24;;;;;;;;;;;;;;;24.92;61.82;101037.19;4993955;28;1127;-48
2021/09/02 09:21:04;;;;;;;;;;;;;;;24.90;61.64;101031.94;4993977;28;1100;-47
2021/09/02 09:23:50;;;;;;;;;;;;;;;24.93;61.55;101041.56;4994258;28;1141;-47
2021/09/02 09:26:16;;;;;;;;;;;;;;;24.92;61.27;101035.34;4993930;28;1104;-47
2021/09/02 09:28:43;;;;;;;;;;;;;;;24.92;61.27;101043.44;4994145;28;1971;-47
2021/09/02 09:31:23;;;;;;;;;;;;;;;24.95;61.86;101042.28;4994520;28;1078;-47
2021/09/02 09:33:51;;;;;;;;;;;;;;;24.92;61.95;101035.34;4994202;28;1094;-47
2021/09/02 09:36:21;;;;;;;;;;;;;;;24.93;61.31;101025.34;4994295;28;967;-48
2021/09/02 09:38:58;;;;;;;;;;;;;;;24.92;61.40;101020.97;4994137;28;1007;-47
2021/09/02 09:41:30;;;;;;;;;;;;;;;24.93;61.47;101026.22;4994044;28;1008;-48
2021/09/02 09:44:11;;;;;;;;;;;;;;;24.93;62.01;101037.03;4993787;28;1092;-47
2021/09/02 09:46:38;;;;;;;;;;;;;;;24.94;61.37;101024.34;4994049;28;1628;-47
2021/09/02 09:49:04;;;;;;;;;;;;;;;24.93;61.73;101026.22;4997775;28;1976;-47
2021/09/02 09:51:31;;;;;;;;;;;;;;;24.98;62.29;101044.63;4997810;28;1067;-48
2021/09/02 09:53:59;;;;;;;;;;;;;;;24.97;62.07;101032.13;4997710;28;1023;-47
2021/09/02 09:56:26;;;;;;;;;;;;;;;24.95;61.91;101029.59;4997436;28;1080;-47
2021/09/02 09:58:53;;;;;;;;;;;;;;;24.99;61.53;101028.25;4997657;28;1008;-47
2021/09/02 10:01:20;;;;;;;;;;;;;;;25.02;61.17;101046.81;4997106;28;1396;-47
2021/09/02 10:03:50;;;;;;;;;;;;;;;25.01;61.35;101020.81;4997588;28;1101;-48
2021/09/02 10:06:17;;;;;;;;;;;;;;;24.97;62.42;101022.16;4997150;28;1060;-47
2021/09/02 10:08:45;;;;;;;;;;;;;;;25.02;61.46;101022.47;4997001;28;1977;-48
2021/09/02 10:11:14;;;;;;;;;;;;;;;25.03;62.27;101028.75;4997163;28;1143;-47
2021/09/02 10:13:40;;;;;;;;;;;;;;;24.99;61.65;101022.84;4997455;28;1102;-48
2021/09/02 10:16:07;;;;;;;;;;;;;;;25.01;62.36;101034.34;4997073;28;1088;-47
2021/09/02 10:18:36;;;;;;;;;;;;;;;24.98;62.04;101023.84;4997260;28;1089;-48
2021/09/02 10:21:04;;;;;;;;;;;;;;;25.00;61.60;101021.81;4997534;28;1955;-47
2021/09/02 10:23:31;;;;;;;;;;;;;;;25.00;61.72;101023.66;4997273;28;1090;-48
2021/09/02 10:25:58;;;;;;;;;;;;;;;24.93;61.96;101011.81;4996914;28;1076;-47
2021/09/02 10:28:29;;;;;;;;;;;;;;;24.94;61.58;101037.88;4997050;28;1974;-47
2021/09/02 10:30:56;;;;;;;;;;;;;;;24.90;61.99;101015.72;4997641;28;996;-48
2021/09/02 10:33:33;;;;;;;;;;;;;;;24.89;61.69;101030.28;4996732;28;1108;-47
2021/09/02 10:36:00;;;;;;;;;;;;;;;24.94;62.13;101027.06;4996773;28;1140;-47
2021/09/02 10:38:37;;;;;;;;;;;;;;;24.89;61.85;101014.03;4996679;28;2046;-47
2021/09/02 10:41:03;;;;;;;;;;;;;;;24.91;61.83;101017.44;4996895;28;1194;-47
2021/09/02 10:43:51;;;;;;;;;;;;;;;24.88;62.51;101025.88;4996807;28;1097;-47
2021/09/02 10:46:28;;;;;;;;;;;;;;;24.89;61.97;101024.88;4996834;28;1071;-47
2021/09/02 10:48:55;;;;;;;;;;;;;;;24.84;61.81;101016.41;4996722;28;1906;-47
2021/09/02 10:51:34;;;;;;;;;;;;;;;24.83;61.85;101019.25;4996734;28;1048;-47
2021/09/02 10:54:01;;;;;;;;;;;;;;;24.84;62.19;101020.97;4996521;28;1167;-48
2021/09/02 10:56:31;;;;;;;;;;;;;;;24.87;62.80;101032.31;4996354;28;1084;-47
2021/09/02 10:58:59;;;;;;;;;;;;;;;24.85;61.98;101037.03;4995527;28;1307;-47
2021/09/02 11:01:26;;;;;;;;;;;;;;;24.84;62.18;101024.50;4995935;28;1339;-48
2021/09/02 11:03:55;;;;;;;;;;;;;;;24.82;62.89;101018.41;4996195;28;1088;-47
2021/09/02 11:06:21;;;;;;;;;;;;;;;24.83;62.65;101019.25;4996091;28;1068;-48
2021/09/02 11:08:48;;;;;;;;;;;;;;;24.80;62.45;101001.53;4996356;28;1978;-48
2021/09/02 11:11:15;;;;;;;;;;;;;;;24.83;62.41;101008.44;4996043;28;1092;-47
2021/09/02 11:13:43;;;;;;;;;;;;;;;24.84;62.29;101023.66;4996014;28;1112;-48
2021/09/02 11:16:12;;;;;;;;;;;;;;;24.84;62.12;100999.31;4995988;28;1099;-47
2021/09/02 11:18:42;;;;;;;;;;;;;;;24.79;62.04;101010.66;4996285;28;1069;-48
2021/09/02 11:21:11;;;;;;;;;;;;;;;24.78;62.30;101007.09;4996237;28;1011;-47
2021/09/02 11:23:40;;;;;;;;;;;;;;;24.81;62.57;101027.56;4995866;28;1138;-47
2021/09/02 11:26:06;;;;;;;;;;;;;;;24.80;61.92;101009.63;4995791;28;1075;-48
2021/09/02 11:28:46;;;;;;;;;;;;;;;24.80;62.42;101007.75;4995674;28;1906;-47
2021/09/02 11:31:14;;;;;;;;;;;;;;;24.81;62.48;101006.75;4995930;28;1082;-47
2021/09/02 11:33:47;;;;;;;;;;;;;;;24.77;62.58;101018.06;4995656;28;1103;-47
2021/09/02 11:36:14;;;;;;;;;;;;;;;24.81;62.07;101014.88;4995576;28;1180;-47
2021/09/02 11:38:42;;;;;;;;;;;;;;;24.78;62.56;101006.25;4995883;28;1067;-47
2021/09/02 11:41:09;;;;;;;;;;;;;;;24.76;62.10;101009.13;4995815;28;996;-48
2021/09/02 11:43:37;;;;;;;;;;;;;;;24.77;62.23;101015.38;4995521;28;2040;-47
2021/09/02 11:46:05;;;;;;;;;;;;;;;24.82;62.30;101015.72;4995701;28;1008;-48
2021/09/02 11:48:43;;;;;;;;;;;;;;;24.75;62.05;101010.16;4995588;28;1910;-47
2021/09/02 11:51:10;;;;;;;;;;;;;;;24.75;62.66;101007.44;4995314;28;1174;-48
2021/09/02 11:53:36;;;;;;;;;;;;;;;24.77;63.10;101020.78;4995465;28;999;-48
2021/09/02 11:56:12;;;;;;;;;;;;;;;24.75;62.42;101007.44;4995523;28;1004;-48
2021/09/02 11:58:39;;;;;;;;;;;;;;;24.75;62.39;101006.56;4995142;28;1139;-48
2021/09/02 12:01:05;;;;;;;;;;;;;;;24.72;62.56;100996.94;4995104;28;1104;-47
2021/09/02 12:03:33;;;;;;;;;;;;;;;24.76;63.18;101021.81;4956545;28;1412;-47
2021/09/02 12:06:00;;;;;;;;;;;;;;;24.72;63.03;101012.34;4956285;29;1104;-48
2021/09/02 12:08:27;;;;;;;;;;;;;;;24.74;62.75;101010.31;4956125;29;1975;-48
2021/09/02 12:10:54;;;;;;;;;;;;;;;24.68;63.26;101005.56;4955198;28;1117;-47
2021/09/02 12:13:21;;;;;;;;;;;;;;;24.71;62.36;101003.38;4956468;29;1071;-48
2021/09/02 12:16:01;;;;;;;;;;;;;;;24.72;62.27;101006.94;4956423;29;1004;-47
2021/09/02 12:18:29;;;;;;;;;;;;;;;24.72;62.31;101002.34;4956000;29;1069;-48
2021/09/02 12:21:05;;;;;;;;;;;;;;;24.71;62.45;100994.41;4956044;29;1097;-47
2021/09/02 12:23:32;;;;;;;;;;;;;;;24.70;62.77;101017.06;4955980;29;1084;-48
2021/09/02 12:26:00;;;;;;;;;;;;;;;24.69;62.34;100989.19;4956620;28;1086;-48
2021/09/02 12:28:33;;;;;;;;;;;;;;;24.71;62.75;101007.94;4956125;29;1906;-47
2021/09/02 12:31:13;;;;;;;;;;;;;;;24.74;62.54;101000.31;4956087;29;1040;-47
2021/09/02 12:33:53;;;;;;;;;;;;;;;24.73;63.34;101003.19;4956139;28;1036;-47
2021/09/02 12:36:21;;;;;;;;;;;;;;;24.73;62.66;100998.66;4955792;29;1072;-47
2021/09/02 12:38:48;;;;;;;;;;;;;;;24.77;62.97;101007.25;4956065;28;1085;-47
2021/09/02 12:41:15;;;;;;;;;;;;;;;24.73;62.42;101003.19;4956068;28;1055;-47
2021/09/02 12:43:56;;;;;;;;;;;;;;;24.71;62.27;100995.28;4955622;28;1080;-47
2021/09/02 12:46:22;;;;;;;;;;;;;;;24.76;63.26;100997.47;4956182;28;1830;-47
2021/09/02 12:48:49;;;;;;;;;;;;;;;24.70;63.06;100993.56;4955521;29;1980;-48
2021/09/02 12:51:22;;;;;;;;;;;;;;;24.73;62.47;101006.75;4955881;28;1065;-47
2021/09/02 12:53:58;;;;;;;;;;;;;;;24.73;62.40;101001.34;4955480;29;1140;-48
2021/09/02 12:56:24;;;;;;;;;;;;;;;24.71;63.34;101003.38;4955530;28;1031;-47